Upstream stations:
Downstream station:
SHEF ID: BRIO2 Canadian River at Bridgeport, OK
STATION TYPE:
Regulating: Stage = 15.00, Flow = 8545
STAGE RIV-FLOW
ft cfs
Ccp-Rev Ccp-Rev
(US/Central)
05/20 00:00 12.61 2205
05/20 01:00 12.60 2190
05/20 02:00 12.59 2176
05/20 03:00 12.59 2176
05/20 04:00 12.57 2146
05/20 05:00 12.57 2146
05/20 06:00 12.67 2295
05/20 07:00 13.11 3036
05/20 08:00 13.09 2999
05/20 09:00 12.99 2820
05/20 10:00 12.94 2733
05/20 11:00 12.93 2716
05/20 12:00 12.90 2665
05/20 13:00 12.88 2631
05/20 14:00 12.86 2598
05/20 15:00 12.85 2581
05/20 16:00 12.84 2565
05/20 17:00 12.84 2565
05/20 18:00 12.82 2532
05/20 19:00 12.81 2516
05/20 20:00 12.70 2341
05/20 21:00 12.64 2250
05/20 22:00 9.69 83
05/20 23:00 ---- ----